Time;durP1;ratioP1;P1;durP2;ratioP2;P2;SDS_P1;SDS_P2;PMS_P1;PMS_P2;Temp;Humidity;BMP_temperature;BMP_pressure;BME280_temperature;BME280_humidity;BME280_pressure;Samples;Min_cycle;Max_cycle;Signal;HPM_P1;HPM_P2
2021/09/13 00:00:09;;;;;;;14.50;7.35;;;15.40;99.90;;;;;;5039629;28;20040;-72
2021/09/13 00:02:46;;;;;;;10.88;6.65;;;15.40;99.90;;;;;;5036182;28;20051;-72
2021/09/13 00:05:16;;;;;;;12.45;8.18;;;15.40;99.90;;;;;;5034206;28;20132;-71
2021/09/13 00:07:44;;;;;;;12.63;6.93;;;15.30;99.90;;;;;;5029403;28;20048;-72
2021/09/13 00:10:11;;;;;;;10.52;6.95;;;15.40;99.90;;;;;;5029070;28;20176;-72
2021/09/13 00:12:39;;;;;;;10.88;6.40;;;15.50;99.90;;;;;;5034542;28;20169;-72
2021/09/13 00:15:07;;;;;;;10.07;6.45;;;15.60;99.90;;;;;;5032791;28;20546;-73
2021/09/13 00:17:37;;;;;;;12.52;7.28;;;15.50;99.90;;;;;;5032965;28;20517;-72
2021/09/13 00:20:08;;;;;;;13.15;6.97;;;15.70;99.90;;;;;;5035326;28;20044;-72
2021/09/13 00:22:38;;;;;;;13.68;7.63;;;15.70;99.90;;;;;;5036279;28;20096;-73
2021/09/13 00:25:07;;;;;;;13.23;7.75;;;15.70;99.90;;;;;;5033552;28;20690;-73
2021/09/13 00:27:35;;;;;;;12.10;7.20;;;15.60;99.90;;;;;;5033909;28;21071;-73
2021/09/13 00:30:02;;;;;;;11.15;7.15;;;15.70;99.90;;;;;;5035394;28;20051;-74
2021/09/13 00:32:32;;;;;;;12.75;7.55;;;15.70;99.90;;;;;;5033506;28;20123;-73
2021/09/13 00:35:06;;;;;;;14.95;7.63;;;15.50;99.90;;;;;;5032979;28;20048;-73
2021/09/13 00:37:38;;;;;;;13.88;8.35;;;15.50;99.90;;;;;;5037266;28;20048;-73
2021/09/13 00:40:08;;;;;;;12.32;7.78;;;15.40;99.90;;;;;;5040895;28;21060;-73
2021/09/13 00:42:35;;;;;;;14.98;7.93;;;15.30;99.90;;;;;;5040778;28;20810;-73
2021/09/13 00:45:02;;;;;;;18.05;8.07;;;15.20;99.90;;;;;;5040424;28;20057;-73
2021/09/13 00:47:29;;;;;;;12.38;8.00;;;15.10;99.90;;;;;;5038078;28;20049;-73
2021/09/13 00:49:56;;;;;;;13.13;7.90;;;15.00;99.90;;;;;;5034448;28;20132;-73
2021/09/13 00:52:24;;;;;;;15.57;7.78;;;14.90;99.90;;;;;;5032393;28;20175;-73
2021/09/13 00:54:51;;;;;;;11.57;6.57;;;14.90;99.90;;;;;;5031367;28;20049;-74
2021/09/13 00:57:31;;;;;;;17.15;8.38;;;14.80;99.90;;;;;;5031882;28;20040;-73
2021/09/13 00:59:58;;;;;;;12.52;8.05;;;14.60;99.90;;;;;;5035806;28;20651;-73
2021/09/13 01:02:25;;;;;;;14.60;7.68;;;14.60;99.90;;;;;;5034120;28;20129;-74
2021/09/13 01:04:52;;;;;;;13.30;8.32;;;14.50;99.90;;;;;;5037732;28;20121;-74
2021/09/13 01:07:20;;;;;;;13.27;8.05;;;14.40;99.90;;;;;;5034299;28;20093;-74
2021/09/13 01:09:47;;;;;;;13.35;7.68;;;14.40;99.90;;;;;;5034864;28;20488;-73
2021/09/13 01:12:25;;;;;;;13.70;7.82;;;14.30;99.90;;;;;;5032729;28;20071;-73
2021/09/13 01:14:52;;;;;;;12.63;8.07;;;14.40;99.90;;;;;;5034200;28;20044;-73
2021/09/13 01:17:19;;;;;;;12.73;7.13;;;14.40;99.90;;;;;;5035745;28;20140;-73
2021/09/13 01:19:45;;;;;;;12.80;7.65;;;14.40;99.90;;;;;;5035012;28;20057;-73
2021/09/13 01:22:14;;;;;;;11.95;7.32;;;14.50;99.90;;;;;;5034847;28;20135;-73
2021/09/13 01:24:42;;;;;;;11.00;7.15;;;14.40;99.90;;;;;;5032647;28;20117;-73
2021/09/13 01:27:11;;;;;;;14.45;8.18;;;14.50;99.90;;;;;;5029905;28;20044;-72
2021/09/13 01:29:39;;;;;;;16.20;7.55;;;14.20;99.90;;;;;;5025976;28;20048;-72
2021/09/13 01:32:09;;;;;;;12.13;7.35;;;14.10;99.90;;;;;;5026766;28;20052;-72
2021/09/13 01:34:36;;;;;;;15.40;8.57;;;14.10;99.90;;;;;;5028089;28;20114;-73
2021/09/13 01:37:04;;;;;;;15.95;8.60;;;14.10;99.90;;;;;;5028900;28;20098;-74
2021/09/13 01:39:31;;;;;;;11.27;7.07;;;14.10;99.90;;;;;;5032084;28;20535;-73
2021/09/13 01:41:59;;;;;;;12.75;7.35;;;14.10;99.90;;;;;;5030274;28;20489;-73
2021/09/13 01:44:26;;;;;;;11.95;7.43;;;14.00;99.90;;;;;;5025893;28;20047;-73
2021/09/13 01:46:53;;;;;;;15.32;8.10;;;14.00;99.90;;;;;;5022588;28;20040;-73
2021/09/13 01:49:21;;;;;;;11.82;7.68;;;13.90;99.90;;;;;;5027981;28;20045;-73
2021/09/13 01:51:47;;;;;;;11.25;7.10;;;13.90;99.90;;;;;;5033221;28;20080;-73
2021/09/13 01:54:14;;;;;;;11.73;7.93;;;13.90;99.90;;;;;;5030772;28;20048;-74
2021/09/13 01:56:41;;;;;;;12.88;7.53;;;13.90;99.90;;;;;;5029225;28;20490;-73
2021/09/13 01:59:10;;;;;;;11.90;7.57;;;13.90;99.90;;;;;;5030995;28;20140;-73
2021/09/13 02:01:37;;;;;;;15.00;8.70;;;13.90;99.90;;;;;;5034908;28;20060;-73
2021/09/13 02:04:04;;;;;;;14.07;7.88;;;13.80;99.90;;;;;;5034373;28;20159;-73
2021/09/13 02:06:32;;;;;;;12.02;8.02;;;13.80;99.90;;;;;;5030866;28;20125;-74
2021/09/13 02:08:59;;;;;;;16.52;8.90;;;13.70;99.90;;;;;;5033255;28;20175;-73
2021/09/13 02:11:26;;;;;;;13.00;8.00;;;13.70;99.90;;;;;;5032549;28;20088;-74
2021/09/13 02:13:53;;;;;;;14.23;8.45;;;13.70;99.90;;;;;;5030355;28;20519;-73
2021/09/13 02:16:24;;;;;;;11.60;7.38;;;13.60;99.90;;;;;;5032399;28;20149;-73
2021/09/13 02:18:51;;;;;;;14.93;8.07;;;13.60;99.90;;;;;;5034410;28;20056;-74
2021/09/13 02:21:18;;;;;;;20.65;9.02;;;13.60;99.90;;;;;;5036743;28;20131;-74
2021/09/13 02:23:48;;;;;;;13.75;7.93;;;13.50;99.90;;;;;;5035183;28;20132;-74
2021/09/13 02:26:15;;;;;;;15.05;8.43;;;13.40;99.90;;;;;;5034499;28;20048;-74
2021/09/13 02:28:48;;;;;;;13.65;8.20;;;13.50;99.90;;;;;;5040103;28;20464;-74
2021/09/13 02:31:18;;;;;;;16.35;8.38;;;13.50;99.90;;;;;;5038136;28;20049;-74
2021/09/13 02:33:49;;;;;;;16.83;8.95;;;13.40;99.90;;;;;;5039643;28;20107;-74
2021/09/13 02:36:16;;;;;;;18.13;8.82;;;13.40;99.90;;;;;;5038187;28;20123;-74
2021/09/13 02:38:43;;;;;;;12.77;8.40;;;13.30;99.90;;;;;;5039596;28;20131;-74
2021/09/13 02:41:10;;;;;;;13.07;8.20;;;13.40;99.90;;;;;;5041783;28;20149;-73
2021/09/13 02:43:37;;;;;;;13.13;8.00;;;13.40;99.90;;;;;;5041542;28;20044;-74
2021/09/13 02:46:04;;;;;;;17.67;8.73;;;13.40;99.90;;;;;;5039645;28;20084;-73
2021/09/13 02:48:30;;;;;;;13.77;8.52;;;13.30;99.90;;;;;;5040874;28;20127;-74
2021/09/13 02:51:02;;;;;;;14.27;8.52;;;13.20;99.90;;;;;;5040324;28;20114;-73
2021/09/13 02:53:29;;;;;;;14.65;9.05;;;13.20;99.90;;;;;;5041662;28;20051;-74
2021/09/13 02:55:56;;;;;;;12.63;8.07;;;13.10;99.90;;;;;;5037460;28;20056;-73
2021/09/13 02:58:26;;;;;;;12.40;8.02;;;13.10;99.90;;;;;;5040551;28;20063;-74
2021/09/13 03:00:53;;;;;;;13.55;7.88;;;13.20;99.90;;;;;;5035225;28;20409;-74
2021/09/13 03:03:23;;;;;;;12.30;7.40;;;13.30;99.90;;;;;;5040858;28;20048;-73
2021/09/13 03:05:51;;;;;;;11.50;7.13;;;13.40;99.90;;;;;;5040837;28;20084;-73
2021/09/13 03:08:23;;;;;;;13.07;7.57;;;13.20;99.90;;;;;;5042788;28;20056;-73
2021/09/13 03:10:53;;;;;;;16.02;7.57;;;13.30;99.90;;;;;;5040681;28;20049;-74
2021/09/13 03:13:20;;;;;;;13.63;7.72;;;13.40;99.90;;;;;;5041888;28;20164;-74
2021/09/13 03:15:47;;;;;;;15.20;7.32;;;13.30;99.90;;;;;;5040263;28;20052;-73
2021/09/13 03:18:13;;;;;;;14.25;8.00;;;13.30;99.90;;;;;;5038782;28;20055;-73
2021/09/13 03:20:40;;;;;;;12.68;7.90;;;13.30;99.90;;;;;;5039754;28;20059;-73
2021/09/13 03:23:07;;;;;;;15.30;8.00;;;13.20;99.90;;;;;;5038918;28;20521;-73
2021/09/13 03:25:36;;;;;;;13.60;8.82;;;13.10;99.90;;;;;;5037910;28;20622;-74
2021/09/13 03:28:04;;;;;;;14.45;7.78;;;13.10;99.90;;;;;;5037141;28;20139;-74
2021/09/13 03:30:31;;;;;;;12.85;8.27;;;13.10;99.90;;;;;;5040343;28;20054;-75
2021/09/13 03:32:58;;;;;;;15.35;7.82;;;13.10;99.90;;;;;;5036647;28;20171;-74
2021/09/13 03:35:24;;;;;;;12.43;7.35;;;13.10;99.90;;;;;;5039091;28;20140;-74
2021/09/13 03:37:51;;;;;;;11.95;6.75;;;13.10;99.90;;;;;;5035907;28;20459;-74
2021/09/13 03:40:18;;;;;;;17.45;9.07;;;13.20;99.90;;;;;;5038187;28;20044;-74
2021/09/13 03:42:47;;;;;;;13.95;8.63;;;13.10;99.90;;;;;;5039282;28;20118;-74
2021/09/13 03:45:14;;;;;;;14.98;7.82;;;12.90;99.90;;;;;;5036889;28;20135;-74
2021/09/13 03:47:41;;;;;;;12.27;7.75;;;12.80;99.90;;;;;;5039283;28;20135;-74
2021/09/13 03:50:10;;;;;;;14.77;8.25;;;12.90;99.90;;;;;;5036742;28;20050;-74
2021/09/13 03:52:40;;;;;;;13.30;8.15;;;12.80;99.90;;;;;;5038802;28;20508;-73
2021/09/13 03:55:08;;;;;;;13.73;7.45;;;12.80;99.90;;;;;;5035901;28;20056;-74
2021/09/13 03:57:35;;;;;;;13.40;7.20;;;12.80;99.90;;;;;;5036958;28;20142;-74
2021/09/13 04:00:07;;;;;;;15.65;7.80;;;12.90;99.90;;;;;;5038652;28;20558;-75
2021/09/13 04:02:36;;;;;;;17.13;8.85;;;12.80;99.90;;;;;;5039195;28;20217;-74
2021/09/13 04:05:03;;;;;;;14.60;8.35;;;12.80;99.90;;;;;;5043075;28;20064;-74
2021/09/13 04:07:37;;;;;;;13.18;8.48;;;12.70;99.90;;;;;;5042958;28;20052;-73
2021/09/13 04:10:20;;;;;;;14.30;8.93;;;12.70;99.90;;;;;;5042095;28;20056;-74
2021/09/13 04:12:46;;;;;;;11.90;7.88;;;12.70;99.90;;;;;;5041478;28;20125;-74
2021/09/13 04:15:15;;;;;;;13.45;7.93;;;12.70;99.90;;;;;;5039501;28;20128;-73
2021/09/13 04:17:45;;;;;;;15.15;8.48;;;12.80;99.90;;;;;;5040163;28;20501;-74
2021/09/13 04:20:14;;;;;;;15.27;8.65;;;12.90;99.90;;;;;;5040146;28;21145;-74
2021/09/13 04:22:41;;;;;;;17.23;9.55;;;12.80;99.90;;;;;;5040389;28;20135;-74
2021/09/13 04:25:09;;;;;;;15.63;8.80;;;12.70;99.90;;;;;;5037725;28;20728;-74
2021/09/13 04:27:39;;;;;;;15.40;8.85;;;12.60;99.90;;;;;;5038733;28;20129;-74
2021/09/13 04:30:08;;;;;;;14.60;8.50;;;12.50;99.90;;;;;;5037275;28;20071;-74
2021/09/13 04:32:36;;;;;;;14.57;7.72;;;12.50;99.90;;;;;;5039867;28;20467;-74
2021/09/13 04:35:03;;;;;;;14.25;8.63;;;12.50;99.90;;;;;;5039482;28;20052;-74
2021/09/13 04:37:31;;;;;;;14.38;8.60;;;12.50;99.90;;;;;;5041880;28;20132;-74
2021/09/13 04:39:57;;;;;;;16.83;9.07;;;12.50;99.90;;;;;;5039340;28;20090;-74
2021/09/13 04:42:24;;;;;;;16.90;8.93;;;12.50;99.90;;;;;;5039633;28;20052;-73
2021/09/13 04:44:51;;;;;;;16.80;8.70;;;12.60;99.90;;;;;;5037079;28;20102;-74
2021/09/13 04:47:21;;;;;;;15.38;9.05;;;12.50;99.90;;;;;;5035429;28;20225;-73
2021/09/13 04:49:49;;;;;;;17.30;8.75;;;12.40;99.90;;;;;;5035410;28;21002;-74
2021/09/13 04:52:16;;;;;;;15.10;7.95;;;12.40;99.90;;;;;;5037582;28;20154;-74
2021/09/13 04:54:43;;;;;;;14.80;8.57;;;12.40;99.90;;;;;;5038713;28;20052;-75
2021/09/13 04:57:10;;;;;;;14.23;8.43;;;12.30;99.90;;;;;;5035584;28;20067;-75
2021/09/13 04:59:37;;;;;;;15.68;8.75;;;12.30;99.90;;;;;;5035469;28;20146;-74
2021/09/13 05:02:04;;;;;;;14.20;7.97;;;12.30;99.90;;;;;;5035005;28;20044;-74
2021/09/13 05:04:31;;;;;;;13.00;7.85;;;12.30;99.90;;;;;;5037049;28;20086;-74
2021/09/13 05:06:59;;;;;;;16.35;8.38;;;12.40;99.90;;;;;;5035304;28;20105;-74
2021/09/13 05:09:27;;;;;;;16.40;8.77;;;12.40;99.90;;;;;;5035484;28;20128;-74
2021/09/13 05:11:54;;;;;;;14.25;7.63;;;12.50;99.90;;;;;;5036301;28;20527;-74
2021/09/13 05:14:21;;;;;;;15.93;7.85;;;12.50;99.90;;;;;;5034532;28;20056;-74
2021/09/13 05:16:48;;;;;;;18.02;7.55;;;12.60;99.90;;;;;;5035847;28;20050;-74
2021/09/13 05:19:18;;;;;;;18.48;8.43;;;12.60;99.90;;;;;;5034823;28;20040;-74
2021/09/13 05:21:45;;;;;;;15.90;7.85;;;12.60;99.90;;;;;;5035227;28;20062;-74
2021/09/13 05:24:13;;;;;;;15.25;7.80;;;12.60;99.90;;;;;;5036462;28;20553;-75
2021/09/13 05:26:41;;;;;;;16.08;8.30;;;12.60;99.90;;;;;;5033202;28;20079;-74
2021/09/13 05:29:09;;;;;;;14.82;7.75;;;12.70;99.90;;;;;;5036288;28;20048;-74
2021/09/13 05:31:36;;;;;;;19.92;8.57;;;12.70;99.90;;;;;;5036803;28;20131;-74
2021/09/13 05:34:03;;;;;;;16.17;7.43;;;12.70;99.90;;;;;;5036047;28;20062;-75
2021/09/13 05:36:29;;;;;;;13.07;7.70;;;12.60;99.90;;;;;;5035322;28;20068;-74
2021/09/13 05:38:56;;;;;;;13.68;6.80;;;12.60;99.90;;;;;;5034698;28;20137;-74
2021/09/13 05:41:25;;;;;;;14.05;7.72;;;12.70;99.90;;;;;;5035806;28;20067;-74
2021/09/13 05:43:52;;;;;;;13.48;7.70;;;12.70;99.90;;;;;;5034994;28;20052;-76
2021/09/13 05:46:19;;;;;;;16.88;7.72;;;12.70;99.90;;;;;;5035916;28;20055;-73
2021/09/13 05:48:46;;;;;;;14.95;7.68;;;12.70;99.90;;;;;;5036277;28;20088;-74
2021/09/13 05:51:15;;;;;;;13.63;8.10;;;12.80;99.90;;;;;;5031294;28;20131;-73
2021/09/13 05:53:42;;;;;;;18.17;8.52;;;12.80;99.90;;;;;;5031525;28;20073;-74
2021/09/13 05:56:12;;;;;;;15.98;8.23;;;12.80;99.90;;;;;;5033670;28;20049;-75
2021/09/13 05:58:40;;;;;;;15.65;8.02;;;12.90;99.90;;;;;;5035317;28;20584;-75
2021/09/13 06:01:07;;;;;;;14.77;7.93;;;13.00;99.90;;;;;;5037447;28;20406;-74
2021/09/13 06:03:35;;;;;;;15.63;8.07;;;13.00;99.90;;;;;;5037132;28;20064;-74
2021/09/13 06:06:02;;;;;;;16.70;8.27;;;13.10;99.90;;;;;;5031511;28;20052;-74
2021/09/13 06:08:29;;;;;;;16.42;8.23;;;13.10;99.90;;;;;;5035549;28;20052;-74
2021/09/13 06:10:56;;;;;;;18.55;9.13;;;13.20;99.90;;;;;;5035990;28;20044;-74
2021/09/13 06:13:23;;;;;;;18.83;8.70;;;13.30;99.90;;;;;;5037112;28;20053;-72
2021/09/13 06:16:43;;;;;;;21.80;9.38;;;13.40;99.90;;;;;;5060286;28;20055;-74
2021/09/13 06:19:12;;;;;;;19.48;10.20;;;13.40;99.90;;;;;;5035907;28;20608;-74
2021/09/13 06:21:39;;;;;;;18.58;10.25;;;13.50;99.90;;;;;;5033616;28;20349;-74
2021/09/13 06:24:06;;;;;;;25.30;10.73;;;13.50;99.90;;;;;;5029827;28;20048;-73
2021/09/13 06:26:33;;;;;;;15.57;8.80;;;13.50;99.90;;;;;;5031361;28;20759;-73
2021/09/13 06:29:01;;;;;;;18.95;8.88;;;13.60;99.90;;;;;;5031629;28;20052;-74
2021/09/13 06:31:28;;;;;;;17.92;9.10;;;13.50;99.90;;;;;;5030346;28;20049;-74
2021/09/13 06:33:55;;;;;;;14.95;8.77;;;13.50;99.90;;;;;;5034226;28;20067;-73
2021/09/13 06:36:26;;;;;;;15.02;9.32;;;13.70;99.90;;;;;;5040513;28;20048;-74
2021/09/13 06:38:53;;;;;;;19.45;9.35;;;13.80;99.90;;;;;;5038906;28;20216;-74
2021/09/13 06:41:20;;;;;;;13.70;8.13;;;13.80;99.90;;;;;;5042799;28;20049;-73
2021/09/13 06:43:48;;;;;;;15.75;8.18;;;13.80;99.90;;;;;;5040906;28;20064;-73
2021/09/13 06:46:21;;;;;;;20.73;9.77;;;14.00;99.90;;;;;;5039280;28;20056;-73
2021/09/13 06:48:49;;;;;;;20.75;10.32;;;14.00;99.90;;;;;;5039984;28;20496;-72
2021/09/13 06:51:17;;;;;;;21.75;9.73;;;14.10;99.90;;;;;;5040054;28;20052;-73
2021/09/13 06:53:46;;;;;;;18.20;9.65;;;14.20;99.90;;;;;;5038216;28;20056;-73
2021/09/13 06:56:14;;;;;;;20.55;9.48;;;14.30;99.90;;;;;;5036386;28;20048;-73
2021/09/13 06:58:41;;;;;;;23.45;10.65;;;14.40;99.90;;;;;;5038373;28;20061;-73
2021/09/13 07:01:08;;;;;;;20.90;10.55;;;14.60;99.90;;;;;;5037351;28;20052;-73
2021/09/13 07:03:36;;;;;;;20.85;9.50;;;14.60;99.90;;;;;;5039774;28;20080;-73
2021/09/13 07:06:03;;;;;;;23.92;10.50;;;14.80;99.90;;;;;;5037986;28;20410;-73
2021/09/13 07:08:30;;;;;;;20.25;10.88;;;14.80;99.90;;;;;;5037406;28;21136;-72
2021/09/13 07:11:23;;;;;;;21.63;10.93;;;15.10;99.90;;;;;;5046545;28;20056;-74
2021/09/13 07:13:55;;;;;;;26.00;11.10;;;15.20;99.90;;;;;;5049097;28;21006;-73
2021/09/13 07:16:27;;;;;;;24.90;11.38;;;15.30;99.90;;;;;;5040652;28;20125;-74
2021/09/13 07:18:54;;;;;;;29.15;10.70;;;15.40;99.90;;;;;;5045674;28;20037;-74
2021/09/13 07:21:21;;;;;;;19.02;10.13;;;15.40;99.90;;;;;;5044250;28;20052;-74
2021/09/13 07:23:48;;;;;;;18.45;11.20;;;15.50;99.90;;;;;;5043979;28;20516;-74
2021/09/13 07:26:16;;;;;;;21.60;10.10;;;15.70;99.90;;;;;;5041556;28;21042;-74
2021/09/13 07:28:43;;;;;;;22.48;10.10;;;16.00;99.90;;;;;;5038219;28;20076;-73
2021/09/13 07:31:10;;;;;;;17.23;9.50;;;16.10;99.90;;;;;;5036732;28;20142;-73
2021/09/13 07:33:37;;;;;;;22.83;9.52;;;16.10;99.90;;;;;;5041447;28;20052;-73
2021/09/13 07:36:05;;;;;;;19.70;9.55;;;16.20;99.90;;;;;;5039158;28;20125;-74
2021/09/13 07:38:32;;;;;;;22.92;10.45;;;16.40;99.90;;;;;;5028668;28;20045;-72
2021/09/13 07:40:59;;;;;;;24.50;9.90;;;16.60;99.90;;;;;;5032157;28;20083;-73
2021/09/13 07:43:27;;;;;;;21.95;9.82;;;16.70;99.90;;;;;;5035201;28;20072;-72
2021/09/13 07:45:54;;;;;;;21.60;9.98;;;16.60;99.90;;;;;;5032284;28;20509;-72
2021/09/13 07:48:23;;;;;;;19.52;10.43;;;16.80;99.90;;;;;;5034144;28;20124;-73
2021/09/13 07:50:50;;;;;;;27.80;11.40;;;16.90;99.90;;;;;;5027842;28;20037;-72
2021/09/13 07:53:17;;;;;;;21.48;10.55;;;16.80;99.90;;;;;;5035541;28;20056;-74
2021/09/13 07:55:44;;;;;;;22.35;10.73;;;17.10;99.90;;;;;;5036354;28;20084;-74
2021/09/13 07:58:13;;;;;;;21.15;9.52;;;17.30;99.90;;;;;;5032687;28;20114;-74
2021/09/13 08:00:42;;;;;;;22.05;11.10;;;17.50;99.90;;;;;;5036895;28;20094;-74
2021/09/13 08:03:09;;;;;;;19.85;11.05;;;17.70;99.90;;;;;;5029754;28;20385;-74
2021/09/13 08:05:35;;;;;;;20.60;10.00;;;17.70;99.90;;;;;;5027090;28;20080;-73
2021/09/13 08:08:03;;;;;;;19.60;11.15;;;18.00;99.90;;;;;;5039485;28;20145;-74
2021/09/13 08:10:30;;;;;;;20.63;11.18;;;18.10;99.90;;;;;;5042311;28;20304;-75
2021/09/13 08:12:57;;;;;;;23.33;12.05;;;18.40;99.90;;;;;;5038484;28;20143;-73
2021/09/13 08:15:24;;;;;;;22.65;12.15;;;18.40;99.90;;;;;;5037166;28;20048;-73
2021/09/13 08:17:53;;;;;;;31.08;12.43;;;18.70;99.90;;;;;;5042479;28;20424;-74
2021/09/13 08:20:20;;;;;;;19.40;11.00;;;19.20;99.90;;;;;;5039476;28;20078;-73
2021/09/13 08:22:48;;;;;;;20.13;10.60;;;20.50;99.90;;;;;;5040229;28;20055;-74
2021/09/13 08:25:15;;;;;;;25.00;10.48;;;21.30;99.90;;;;;;5038368;28;20256;-74
2021/09/13 08:27:42;;;;;;;20.15;10.73;;;22.10;99.90;;;;;;5035944;28;20110;-74
2021/09/13 08:30:10;;;;;;;23.63;10.85;;;23.00;99.90;;;;;;5038443;28;20053;-74
2021/09/13 08:32:37;;;;;;;20.88;10.15;;;23.50;99.90;;;;;;5036847;28;20044;-74
2021/09/13 08:35:07;;;;;;;0.00;0.00;;;23.60;99.90;;;;;;5043617;28;20080;-74
2021/09/13 08:37:33;;;;;;;13.57;7.60;;;24.40;99.90;;;;;;5043007;28;20509;-75
2021/09/13 08:40:00;;;;;;;17.38;10.15;;;25.50;99.90;;;;;;5045066;28;20052;-75
2021/09/13 08:42:28;;;;;;;17.48;9.63;;;25.80;99.90;;;;;;5033898;28;20113;-74
2021/09/13 08:44:58;;;;;;;14.82;10.57;;;26.40;99.90;;;;;;5040596;28;20122;-75
2021/09/13 08:47:31;;;;;;;16.55;10.45;;;25.60;99.90;;;;;;5041903;28;20093;-75
2021/09/13 08:50:06;;;;;;;18.17;9.80;;;26.40;99.90;;;;;;5041073;28;20052;-75
2021/09/13 08:52:35;;;;;;;16.42;10.23;;;26.70;99.90;;;;;;5044830;28;20045;-74
2021/09/13 08:55:02;;;;;;;13.95;9.55;;;27.20;99.90;;;;;;5040136;28;20044;-75
2021/09/13 08:57:31;;;;;;;13.95;10.05;;;27.80;99.90;;;;;;5035428;28;20041;-76
2021/09/13 08:59:58;;;;;;;14.75;10.43;;;26.10;99.90;;;;;;5040427;28;20076;-77
2021/09/13 09:02:27;;;;;;;16.55;9.40;;;27.40;99.90;;;;;;5042486;28;20048;-75
2021/09/13 09:04:57;;;;;;;16.00;9.65;;;28.00;99.90;;;;;;5044318;28;20055;-75
2021/09/13 09:07:25;;;;;;;16.10;9.70;;;29.00;99.90;;;;;;5046208;28;20147;-75
2021/09/13 09:10:12;;;;;;;14.77;9.43;;;29.30;99.90;;;;;;5043246;28;20048;-75
2021/09/13 09:13:01;;;;;;;13.07;8.57;;;29.60;99.90;;;;;;5041100;28;20040;-76
2021/09/13 09:15:30;;;;;;;17.10;8.80;;;28.10;99.90;;;;;;5040320;28;20056;-75
2021/09/13 09:17:58;;;;;;;19.40;9.20;;;29.60;99.90;;;;;;5042076;28;20116;-75
2021/09/13 09:20:26;;;;;;;14.35;8.60;;;29.80;99.90;;;;;;5041458;28;20084;-75
2021/09/13 09:23:03;;;;;;;17.73;8.70;;;29.70;99.90;;;;;;5039123;28;20138;-75
2021/09/13 09:25:36;;;;;;;19.15;8.73;;;28.90;99.90;;;;;;5041164;28;20133;-75
2021/09/13 09:28:05;;;;;;;20.25;9.40;;;28.30;99.90;;;;;;5036909;28;20596;-75
2021/09/13 09:30:37;;;;;;;21.02;8.70;;;29.10;99.90;;;;;;5036794;28;20359;-75
2021/09/13 09:33:07;;;;;;;13.98;7.93;;;28.50;99.90;;;;;;5035123;28;20114;-75
2021/09/13 09:35:42;;;;;;;18.80;8.50;;;29.10;99.90;;;;;;5038202;28;20071;-74
2021/09/13 09:38:40;;;;;;;15.80;8.80;;;29.10;99.90;;;;;;5038232;28;20136;-75
2021/09/13 09:41:11;;;;;;;15.80;9.82;;;29.30;99.90;;;;;;5031259;28;21064;-75
2021/09/13 09:43:55;;;;;;;14.45;8.88;;;27.70;99.90;;;;;;5038618;28;20048;-75
2021/09/13 09:46:23;;;;;;;13.70;8.55;;;26.80;99.90;;;;;;5039021;28;20547;-74
2021/09/13 09:48:50;;;;;;;14.80;7.70;;;27.20;99.90;;;;;;5037519;28;20517;-75
2021/09/13 09:51:29;;;;;;;15.30;6.60;;;29.20;99.90;;;;;;5038482;28;21007;-75
2021/09/13 09:53:56;;;;;;;14.52;7.25;;;30.90;99.90;;;;;;5033706;28;20336;-74
2021/09/13 09:56:27;;;;;;;9.70;6.80;;;29.40;99.90;;;;;;5026881;28;20048;-75
2021/09/13 09:58:58;;;;;;;14.25;6.97;;;29.60;99.90;;;;;;5033619;28;20145;-75
2021/09/13 10:01:33;;;;;;;10.85;6.20;;;31.00;99.90;;;;;;5040477;28;20132;-75
2021/09/13 10:04:13;;;;;;;11.60;6.88;;;31.40;99.90;;;;;;5039353;28;20055;-75
2021/09/13 10:06:42;;;;;;;12.60;6.85;;;30.90;99.90;;;;;;5041575;28;20048;-75
2021/09/13 10:09:10;;;;;;;10.65;6.53;;;31.40;99.90;;;;;;5042413;28;20048;-75
2021/09/13 10:11:40;;;;;;;9.93;5.85;;;32.20;99.90;;;;;;5043167;28;20589;-76
2021/09/13 10:14:08;;;;;;;10.13;6.03;;;32.30;99.90;;;;;;5042001;28;20458;-76
2021/09/13 10:16:38;;;;;;;12.38;4.80;;;31.90;99.90;;;;;;5043854;28;20402;-75
2021/09/13 10:19:05;;;;;;;8.13;4.47;;;31.40;99.90;;;;;;5042421;28;20143;-75
2021/09/13 10:21:32;;;;;;;6.07;3.88;;;31.70;99.90;;;;;;5044710;28;20056;-75
2021/09/13 10:24:00;;;;;;;7.53;4.20;;;32.50;99.00;;;;;;5045575;28;20073;-75
2021/09/13 10:26:27;;;;;;;5.85;3.30;;;31.00;99.40;;;;;;5042129;28;20092;-75
2021/09/13 10:29:19;;;;;;;6.70;3.10;;;31.60;98.70;;;;;;5040741;28;20470;-76
2021/09/13 10:32:01;;;;;;;4.70;3.13;;;32.70;97.80;;;;;;5043119;28;20128;-75
2021/09/13 10:34:31;;;;;;;5.50;3.30;;;33.70;96.70;;;;;;5043468;28;20558;-75
2021/09/13 10:37:10;;;;;;;5.88;2.85;;;34.50;94.80;;;;;;5040339;28;20062;-76
2021/09/13 10:39:58;;;;;;;8.40;2.50;;;34.60;93.40;;;;;;5043600;28;20097;-75
2021/09/13 10:42:43;;;;;;;5.65;2.20;;;35.50;90.30;;;;;;5047184;28;20049;-76
2021/09/13 10:45:24;;;;;;;3.50;1.70;;;35.60;87.90;;;;;;5044095;28;20049;-76
2021/09/13 10:48:11;;;;;;;4.38;2.13;;;36.20;82.70;;;;;;5044396;28;20067;-76
2021/09/13 10:50:42;;;;;;;;;;;34.40;83.70;;;;;;5046199;28;20052;-75
2021/09/13 10:53:29;;;;;;;5.07;2.42;;;34.30;84.10;;;;;;5046838;28;20014;-75
2021/09/13 10:55:59;;;;;;;8.18;2.90;;;32.20;87.80;;;;;;5045928;28;20566;-75
2021/09/13 10:58:39;;;;;;;4.78;2.40;;;31.60;87.20;;;;;;5049260;28;20048;-75
2021/09/13 11:01:09;;;;;;;4.93;2.33;;;31.80;88.90;;;;;;5048188;28;20052;-75
2021/09/13 11:03:55;;;;;;;7.13;2.92;;;31.90;90.20;;;;;;5048581;28;20087;-76
2021/09/13 11:06:41;;;;;;;6.82;2.70;;;31.80;90.10;;;;;;5044934;28;20075;-75
2021/09/13 11:09:11;;;;;;;7.18;2.42;;;31.90;90.30;;;;;;5046290;28;20135;-75
2021/09/13 11:11:41;;;;;;;7.93;3.28;;;32.40;90.80;;;;;;5047248;28;20532;-75
2021/09/13 11:14:09;;;;;;;6.15;3.22;;;33.10;89.60;;;;;;5046098;28;20067;-75
2021/09/13 11:16:41;;;;;;;6.13;2.30;;;32.50;90.90;;;;;;5045641;28;20106;-75
2021/09/13 11:19:10;;;;;;;4.13;2.40;;;32.30;88.10;;;;;;5045984;28;20052;-75
2021/09/13 11:21:40;;;;;;;7.35;2.22;;;33.60;88.40;;;;;;5047432;28;20060;-75
2021/09/13 11:24:09;;;;;;;3.50;2.15;;;33.00;88.70;;;;;;5045371;28;20081;-75
2021/09/13 11:26:38;;;;;;;6.22;2.25;;;33.70;88.40;;;;;;5046512;28;20413;-75
2021/09/13 11:29:09;;;;;;;6.80;2.47;;;32.70;88.60;;;;;;5044038;28;20079;-75
2021/09/13 11:31:39;;;;;;;4.72;2.60;;;32.90;88.80;;;;;;5047481;28;20045;-75
2021/09/13 11:34:33;;;;;;;4.50;2.55;;;32.10;90.10;;;;;;5047668;28;20451;-75
2021/09/13 11:37:05;;;;;;;5.53;2.78;;;32.70;90.00;;;;;;5042198;28;20048;-75
2021/09/13 11:39:35;;;;;;;8.43;2.85;;;32.40;89.30;;;;;;5047345;28;20516;-75
2021/09/13 11:42:05;;;;;;;4.47;2.50;;;35.10;87.30;;;;;;5048152;28;20149;-76
2021/09/13 11:44:38;;;;;;;4.55;2.58;;;36.10;85.20;;;;;;5047522;28;20512;-76
2021/09/13 11:47:07;;;;;;;6.10;2.67;;;34.00;85.10;;;;;;5045730;28;20049;-76
2021/09/13 11:49:36;;;;;;;6.50;2.83;;;32.90;81.80;;;;;;5047571;28;20398;-75
2021/09/13 11:52:05;;;;;;;6.38;2.35;;;33.10;87.40;;;;;;5047866;28;20117;-75
2021/09/13 11:54:34;;;;;;;5.82;2.53;;;31.80;88.80;;;;;;5047148;28;20041;-74
2021/09/13 11:57:01;;;;;;;4.13;2.75;;;29.60;90.50;;;;;;5048826;28;20049;-75
2021/09/13 11:59:27;;;;;;;5.20;2.70;;;28.50;91.90;;;;;;5048295;28;20220;-75
2021/09/13 12:02:02;;;;;;;6.20;2.75;;;28.10;92.40;;;;;;5047306;28;20080;-75
2021/09/13 12:04:31;;;;;;;4.95;2.40;;;27.20;93.80;;;;;;5048020;28;20076;-75
2021/09/13 12:07:08;;;;;;;7.53;2.50;;;27.70;94.00;;;;;;5046309;28;20549;-75
2021/09/13 12:09:36;;;;;;;3.60;2.08;;;29.20;93.10;;;;;;5048123;28;20550;-74
2021/09/13 12:12:03;;;;;;;6.60;2.40;;;29.00;93.80;;;;;;5046179;28;20080;-75
2021/09/13 12:14:32;;;;;;;5.57;2.58;;;28.90;93.60;;;;;;5047383;28;20044;-75
2021/09/13 12:17:09;;;;;;;4.20;2.20;;;28.70;92.80;;;;;;5041087;28;20054;-75
2021/09/13 12:19:39;;;;;;;4.93;2.28;;;30.00;92.20;;;;;;5034509;28;20472;-74
2021/09/13 12:22:07;;;;;;;4.20;2.22;;;30.60;91.80;;;;;;5042532;28;20080;-75
2021/09/13 12:24:34;;;;;;;3.70;2.40;;;30.90;91.60;;;;;;5044125;28;20482;-75
2021/09/13 12:27:17;;;;;;;3.72;2.30;;;31.60;91.00;;;;;;5041656;28;20482;-75
2021/09/13 12:29:59;;;;;;;5.55;2.80;;;30.90;91.20;;;;;;5029230;28;20044;-75
2021/09/13 12:32:28;;;;;;;5.28;2.63;;;30.80;91.70;;;;;;5045195;28;20521;-75
2021/09/13 12:35:01;;;;;;;4.65;1.90;;;30.00;92.20;;;;;;5046082;28;20131;-75
2021/09/13 12:37:33;;;;;;;3.50;2.17;;;31.40;90.80;;;;;;5042862;28;20056;-75
2021/09/13 12:40:12;;;;;;;5.00;2.40;;;31.90;89.60;;;;;;5042353;28;20108;-75
2021/09/13 12:42:54;;;;;;;5.93;3.08;;;30.30;90.80;;;;;;5032105;28;20405;-75
2021/09/13 12:45:23;;;;;;;5.18;2.55;;;30.30;91.20;;;;;;5032993;28;20045;-75
2021/09/13 12:47:51;;;;;;;3.60;2.00;;;30.00;91.50;;;;;;5035081;28;20603;-75
2021/09/13 12:50:35;;;;;;;3.17;1.90;;;30.20;90.80;;;;;;5038197;28;20143;-75